createdAt,value
2022-09-06T00:00:00.471Z,76.6
2022-09-06T00:01:16.754Z,76.7
2022-09-06T00:02:33.056Z,76.7
2022-09-06T00:03:49.337Z,76.8
2022-09-06T00:05:04.660Z,76.9
2022-09-06T00:06:20.950Z,77
2022-09-06T00:07:37.234Z,77
2022-09-06T00:08:53.536Z,77.4
2022-09-06T00:10:09.818Z,77.2
2022-09-06T00:11:26.106Z,77
2022-09-06T00:12:41.434Z,77.6
2022-09-06T00:13:57.717Z,77.5
2022-09-06T00:15:14.016Z,77.3
2022-09-06T00:16:30.296Z,77.4
2022-09-06T00:17:46.597Z,77.4
2022-09-06T00:19:02.897Z,77.3
2022-09-06T00:20:19.188Z,77.1
2022-09-06T00:21:35.464Z,77.3
2022-09-06T00:22:51.766Z,77.4
2022-09-06T00:24:08.051Z,77.3
2022-09-06T00:25:24.356Z,77.5
2022-09-06T00:26:40.643Z,77.4
2022-09-06T00:27:56.946Z,77.6
2022-09-06T00:29:12.235Z,77.7
2022-09-06T00:30:28.542Z,78.2
2022-09-06T00:31:44.838Z,78
2022-09-06T00:33:01.124Z,78
2022-09-06T00:34:17.411Z,77.8
2022-09-06T00:35:33.710Z,78
2022-09-06T00:36:49.990Z,78
2022-09-06T00:38:06.291Z,77.8
2022-09-06T00:39:22.574Z,78.1
2022-09-06T00:40:38.872Z,78.3
2022-09-06T00:41:55.166Z,78.5
2022-09-06T00:43:11.473Z,78.3
2022-09-06T00:44:27.749Z,78.7
2022-09-06T00:45:43.066Z,78.6
2022-09-06T00:46:59.361Z,78.5
2022-09-06T00:48:15.653Z,78.6
2022-09-06T00:49:31.936Z,78.7
2022-09-06T00:50:48.231Z,78.7
2022-09-06T00:52:04.529Z,78.9
2022-09-06T00:53:20.825Z,79
2022-09-06T00:54:37.099Z,79
2022-09-06T00:55:53.397Z,78.8
2022-09-06T00:57:09.690Z,79.6
2022-09-06T00:58:25.996Z,79.2
2022-09-06T00:59:42.271Z,79.2
2022-09-06T01:00:58.565Z,79.5
2022-09-06T01:02:13.872Z,79.6
2022-09-06T01:03:30.178Z,79.3
2022-09-06T01:04:46.472Z,79.3
2022-09-06T01:06:02.753Z,79.4
2022-09-06T01:07:19.048Z,79.6
2022-09-06T01:08:35.345Z,79.8
2022-09-06T01:09:51.627Z,80.3
2022-09-06T01:11:07.921Z,80
2022-09-06T01:12:24.225Z,80.2
2022-09-06T01:13:40.515Z,80.1
2022-09-06T01:14:56.796Z,80.1
2022-09-06T01:16:13.085Z,80.2
2022-09-06T01:17:29.381Z,80.2
2022-09-06T01:18:44.696Z,80.3
2022-09-06T01:20:00.983Z,80.1
2022-09-06T01:21:17.273Z,80.2
2022-09-06T01:22:33.582Z,80.2
2022-09-06T01:23:49.876Z,80.5
2022-09-06T01:25:06.170Z,80.4
2022-09-06T01:26:22.449Z,80.5
2022-09-06T01:27:38.746Z,80.7
2022-09-06T01:28:55.044Z,80.5
2022-09-06T01:30:11.327Z,80.5
2022-09-06T01:31:27.615Z,80.7
2022-09-06T01:32:43.906Z,81
2022-09-06T01:34:00.202Z,81
2022-09-06T01:35:15.510Z,81
2022-09-06T01:36:31.802Z,81.1
2022-09-06T01:37:48.097Z,81.5
2022-09-06T01:39:04.392Z,81.6
2022-09-06T01:40:20.676Z,81.5
2022-09-06T01:41:36.967Z,81.5
2022-09-06T01:42:53.259Z,81.3
2022-09-06T01:44:09.560Z,81.1
2022-09-06T01:45:25.858Z,81.2
2022-09-06T01:46:42.153Z,81.4
2022-09-06T01:47:58.436Z,81.7
2022-09-06T01:49:14.734Z,81.9
2022-09-06T01:50:31.000Z,82.3
2022-09-06T01:51:46.328Z,82
2022-09-06T01:53:02.618Z,82.1
2022-09-06T01:54:18.918Z,82.6
2022-09-06T01:55:35.218Z,82.6
2022-09-06T01:56:51.511Z,82.3
2022-09-06T01:58:07.802Z,82.4
2022-09-06T01:59:24.084Z,82.4
2022-09-06T02:00:40.371Z,81.5
2022-09-06T02:01:56.666Z,81.4
2022-09-06T02:03:12.969Z,80.8
2022-09-06T02:04:29.248Z,80.5
2022-09-06T02:05:45.545Z,80.2
2022-09-06T02:07:01.849Z,80.2
2022-09-06T02:08:17.142Z,80.3
2022-09-06T02:09:33.446Z,80.5
2022-09-06T02:10:49.735Z,80.5
2022-09-06T02:12:06.030Z,80.5
2022-09-06T02:13:22.307Z,80.8
2022-09-06T02:14:38.619Z,81
2022-09-06T02:15:54.894Z,80.9
2022-09-06T02:17:11.194Z,81
2022-09-06T02:18:27.489Z,81.4
2022-09-06T02:19:43.774Z,81
2022-09-06T02:21:00.066Z,81.2
2022-09-06T02:22:16.367Z,81.3
2022-09-06T02:23:32.655Z,81.8
2022-09-06T02:24:47.965Z,81.9
2022-09-06T02:26:04.257Z,81.9
2022-09-06T02:27:20.561Z,82.1
2022-09-06T02:28:36.852Z,82.1
2022-09-06T02:29:53.141Z,82.2
2022-09-06T02:31:09.418Z,82.2
2022-09-06T02:32:25.722Z,82.4
2022-09-06T02:33:42.015Z,82.6
2022-09-06T02:34:58.311Z,82.3
2022-09-06T02:36:14.592Z,82.4
2022-09-06T02:37:30.887Z,82.3
2022-09-06T02:38:47.186Z,82.4
2022-09-06T02:40:03.468Z,82.5
2022-09-06T02:41:18.788Z,82.6
2022-09-06T02:42:35.086Z,82.8
2022-09-06T02:43:51.365Z,82.8
2022-09-06T02:45:07.659Z,83.3
2022-09-06T02:46:23.955Z,83.2
2022-09-06T02:47:40.239Z,83.3
2022-09-06T02:48:56.546Z,83
2022-09-06T02:50:12.821Z,83
2022-09-06T02:51:29.120Z,83.3
2022-09-06T02:52:45.418Z,83.5
2022-09-06T02:54:01.702Z,83.8
2022-09-06T02:55:17.997Z,84.1
2022-09-06T02:56:34.291Z,84.4
2022-09-06T02:57:49.603Z,84.4
2022-09-06T02:59:05.885Z,84.4
2022-09-06T03:00:22.189Z,84.4
2022-09-06T03:01:38.478Z,84.4
2022-09-06T03:02:54.770Z,84.4
2022-09-06T03:04:11.055Z,84.4
2022-09-06T03:05:27.349Z,84.3
2022-09-06T03:06:43.642Z,84.3
2022-09-06T03:07:59.943Z,84.3
2022-09-06T03:09:16.225Z,84.5
2022-09-06T03:10:32.532Z,84.1
2022-09-06T03:11:48.827Z,84.3
2022-09-06T03:13:05.108Z,83.9
2022-09-06T03:14:20.417Z,84.1
2022-09-06T03:15:36.702Z,83.7
2022-09-06T03:16:53.000Z,84
2022-09-06T03:18:09.298Z,83.5
2022-09-06T03:19:25.580Z,83.2
2022-09-06T03:20:41.884Z,83.3
2022-09-06T03:21:58.166Z,83.2
2022-09-06T03:23:14.470Z,82.8
2022-09-06T03:24:30.750Z,82.8
2022-09-06T03:25:47.048Z,83
2022-09-06T03:27:03.349Z,83
2022-09-06T03:28:19.625Z,83.2
2022-09-06T03:29:35.927Z,83.5
2022-09-06T03:30:51.239Z,83.5
2022-09-06T03:32:07.536Z,83.7
2022-09-06T03:33:23.821Z,83.7
2022-09-06T03:34:40.104Z,83.3
2022-09-06T03:35:56.400Z,83.2
2022-09-06T03:37:12.704Z,83.7
2022-09-06T03:38:29.000Z,83.8
2022-09-06T03:39:45.281Z,83.7
2022-09-06T03:41:01.571Z,83.5
2022-09-06T03:42:17.878Z,83.5
2022-09-06T03:43:34.162Z,83.5
2022-09-06T03:44:50.447Z,83.5
2022-09-06T03:46:06.755Z,83.5
2022-09-06T03:47:22.050Z,83.2
2022-09-06T03:48:38.338Z,83.3
2022-09-06T03:49:54.645Z,82.8
2022-09-06T03:51:10.932Z,83
2022-09-06T03:53:43.521Z,83.1
2022-09-06T03:54:59.813Z,83.3
2022-09-06T03:56:16.058Z,83.4
2022-09-06T03:57:32.345Z,83.5
2022-09-06T03:58:48.635Z,83.9
2022-09-06T04:00:04.873Z,84.2
2022-09-06T04:01:21.123Z,84.3
2022-09-06T04:02:37.416Z,84.6
2022-09-06T04:03:52.689Z,84.1
2022-09-06T04:05:08.908Z,84.1
2022-09-06T04:06:25.156Z,84.1
2022-09-06T04:07:41.384Z,84.6
2022-09-06T04:08:57.642Z,84.4
2022-09-06T04:10:13.871Z,84.8
2022-09-06T04:11:30.107Z,84.6
2022-09-06T04:12:46.346Z,85
2022-09-06T04:14:02.578Z,84.8
2022-09-06T04:15:18.821Z,84.5
2022-09-06T04:16:35.070Z,84.6
2022-09-06T04:17:51.306Z,84.6
2022-09-06T04:19:07.531Z,85
2022-09-06T04:20:22.796Z,85.2
2022-09-06T04:21:39.024Z,84.8
2022-09-06T04:22:55.272Z,85
2022-09-06T04:24:11.502Z,85
2022-09-06T04:25:27.757Z,85.3
2022-09-06T04:26:43.992Z,85.3
2022-09-06T04:27:59.240Z,85.3
2022-09-06T04:29:15.478Z,85.2
2022-09-06T04:30:31.717Z,85
2022-09-06T04:31:47.952Z,85
2022-09-06T04:33:04.194Z,85.2
2022-09-06T04:34:20.445Z,85.2
2022-09-06T04:35:36.666Z,85.3
2022-09-06T04:36:52.924Z,85.3
2022-09-06T04:38:09.150Z,85.2
2022-09-06T04:39:25.401Z,85
2022-09-06T04:40:41.640Z,84.7
2022-09-06T04:41:57.874Z,84.5
2022-09-06T04:43:14.111Z,84.3
2022-09-06T04:44:29.355Z,84.2
2022-09-06T04:45:45.610Z,84.2
2022-09-06T04:47:01.842Z,84.3
2022-09-06T04:48:18.081Z,84.5
2022-09-06T04:49:34.321Z,84.3
2022-09-06T04:50:50.561Z,84.2
2022-09-06T04:52:06.783Z,84.1
2022-09-06T04:53:23.038Z,83.6
2022-09-06T04:54:39.273Z,83.8
2022-09-06T04:55:55.504Z,83.7
2022-09-06T04:57:11.757Z,83.4
2022-09-06T04:58:27.980Z,83.4
2022-09-06T04:59:44.234Z,83.4
2022-09-06T05:00:59.480Z,83.6
2022-09-06T05:02:15.713Z,83.8
2022-09-06T05:03:31.946Z,83.8
2022-09-06T05:04:48.202Z,83.7
2022-09-06T05:06:04.434Z,83.8
2022-09-06T05:07:20.660Z,84
2022-09-06T05:08:36.917Z,84.2
2022-09-06T05:09:53.147Z,84.2
2022-09-06T05:11:09.378Z,84.3
2022-09-06T05:12:25.613Z,84.4
2022-09-06T05:13:41.855Z,84.5
2022-09-06T05:14:58.094Z,84.7
2022-09-06T05:16:14.339Z,85
2022-09-06T05:17:29.602Z,84.9
2022-09-06T05:18:45.833Z,84.8
2022-09-06T05:20:02.070Z,84.9
2022-09-06T05:21:18.313Z,84.7
2022-09-06T05:22:34.546Z,84.6
2022-09-06T05:23:50.794Z,84.6
2022-09-06T05:25:07.022Z,84.5
2022-09-06T05:26:23.255Z,84.7
2022-09-06T05:27:39.511Z,84.6
2022-09-06T05:28:55.730Z,84.3
2022-09-06T05:30:11.979Z,84.4
2022-09-06T05:31:28.220Z,84.5
2022-09-06T05:32:44.462Z,84.5
2022-09-06T05:33:59.710Z,84.8
2022-09-06T05:35:15.945Z,84.5
2022-09-06T05:36:32.178Z,84.6
2022-09-06T05:37:48.418Z,85.2
2022-09-06T05:40:20.911Z,84.5
2022-09-06T05:41:37.150Z,84
2022-09-06T05:42:53.371Z,84.1
2022-09-06T05:44:09.611Z,83.3
2022-09-06T05:45:25.864Z,83.3
2022-09-06T05:46:42.089Z,83.4
2022-09-06T05:47:58.326Z,83.1
2022-09-06T05:49:14.572Z,83.4
2022-09-06T05:50:29.000Z,83.5
2022-09-06T05:51:46.061Z,83.7
2022-09-06T05:53:02.307Z,83.9
2022-09-06T05:54:18.550Z,83.9
2022-09-06T05:55:34.773Z,84.1
2022-09-06T05:56:51.012Z,84.3
2022-09-06T05:58:07.251Z,84.3
2022-09-06T05:59:23.488Z,84.2
2022-09-06T06:00:39.722Z,84
2022-09-06T06:01:55.979Z,84
2022-09-06T06:03:12.202Z,83.7
2022-09-06T06:04:28.447Z,83.5
2022-09-06T06:05:44.691Z,83.5
2022-09-06T06:06:59.935Z,83.5
2022-09-06T06:08:16.176Z,83.7
2022-09-06T06:09:32.428Z,83.5
2022-09-06T06:10:48.650Z,83.5
2022-09-06T06:12:04.890Z,83.4
2022-09-06T06:13:21.137Z,83.2
2022-09-06T06:14:37.368Z,82.9
2022-09-06T06:15:53.603Z,83.1
2022-09-06T06:17:09.846Z,83
2022-09-06T06:18:26.078Z,83.1
2022-09-06T06:19:42.331Z,83.5
2022-09-06T06:20:58.559Z,83.4
2022-09-06T06:22:14.813Z,82.9
2022-09-06T06:23:30.063Z,83.1
2022-09-06T06:24:46.296Z,82.8
2022-09-06T06:26:02.542Z,82.5
2022-09-06T06:27:18.762Z,82.6
2022-09-06T06:28:35.002Z,82.6
2022-09-06T06:29:51.257Z,82.7
2022-09-06T06:31:07.482Z,82.4
2022-09-06T06:32:23.721Z,82.6
2022-09-06T06:33:39.962Z,82.5
2022-09-06T06:34:56.207Z,82.3
2022-09-06T06:36:12.447Z,82.2
2022-09-06T06:37:28.687Z,81.8
2022-09-06T06:38:44.916Z,82.1
2022-09-06T06:40:00.179Z,81.5
2022-09-06T06:41:16.422Z,81.8
2022-09-06T06:42:32.642Z,81.4
2022-09-06T06:43:48.892Z,81.3
2022-09-06T06:45:05.131Z,81.5
2022-09-06T06:46:21.360Z,81.4
2022-09-06T06:47:37.602Z,81.6
2022-09-06T06:48:53.842Z,81.5
2022-09-06T06:50:10.078Z,81.4
2022-09-06T06:51:26.310Z,81.3
2022-09-06T06:52:42.569Z,81.9
2022-09-06T06:53:58.787Z,81.4
2022-09-06T06:55:15.027Z,81.3
2022-09-06T06:56:30.291Z,81.3
2022-09-06T06:57:46.524Z,81.2
2022-09-06T06:59:02.771Z,81.4
2022-09-06T07:00:19.001Z,81.4
2022-09-06T07:01:35.235Z,81.2
2022-09-06T07:02:51.487Z,81.1
2022-09-06T07:04:07.729Z,80.9
2022-09-06T07:05:23.951Z,80.8
2022-09-06T07:06:40.203Z,80.8
2022-09-06T07:07:56.434Z,80.7
2022-09-06T07:09:12.671Z,80.3
2022-09-06T07:10:28.909Z,80.8
2022-09-06T07:11:45.152Z,80.3
2022-09-06T07:13:00.396Z,80.1
2022-09-06T07:14:16.651Z,80.2
2022-09-06T07:15:32.880Z,80.2
2022-09-06T07:16:49.121Z,80.2
2022-09-06T07:18:05.367Z,79.8
2022-09-06T07:19:21.601Z,79.6
2022-09-06T07:20:37.825Z,79.7
2022-09-06T07:21:54.073Z,79.3
2022-09-06T07:23:10.307Z,79.5
2022-09-06T07:24:26.545Z,78.8
2022-09-06T07:25:42.785Z,79.2
2022-09-06T07:26:59.031Z,79.3
2022-09-06T07:28:15.273Z,79.3
2022-09-06T07:29:30.519Z,78.8
2022-09-06T07:30:46.768Z,78.6
2022-09-06T07:32:03.002Z,78.3
2022-09-06T07:33:19.231Z,78.4
2022-09-06T07:34:35.465Z,78.4
2022-09-06T07:35:51.717Z,78.4
2022-09-06T07:37:07.949Z,78.4
2022-09-06T07:38:24.190Z,77.7
2022-09-06T07:39:40.438Z,77.5
2022-09-06T07:40:56.676Z,77.2
2022-09-06T07:42:12.900Z,77.3
2022-09-06T07:43:29.153Z,78
2022-09-06T07:44:45.375Z,77.7
2022-09-06T07:46:00.627Z,78.2
2022-09-06T07:47:16.871Z,77
2022-09-06T07:48:33.110Z,76.4
2022-09-06T07:49:49.343Z,76.5
2022-09-06T07:51:05.599Z,76.4
2022-09-06T07:52:21.823Z,76.8
2022-09-06T07:53:38.071Z,76.7
2022-09-06T07:54:54.304Z,76.4
2022-09-06T07:56:10.538Z,76.3
2022-09-06T07:57:26.784Z,75.9
2022-09-06T07:58:43.014Z,75.4
2022-09-06T07:59:59.265Z,75.2
2022-09-06T08:01:15.497Z,75.3
2022-09-06T08:02:30.759Z,75.1
2022-09-06T08:03:46.998Z,75.4
2022-09-06T08:05:03.223Z,75
2022-09-06T08:06:19.470Z,74.6
2022-09-06T08:07:35.710Z,74.4
2022-09-06T08:08:51.936Z,74.4
2022-09-06T08:10:08.179Z,74.9
2022-09-06T08:11:24.430Z,74.4
2022-09-06T08:12:40.656Z,73.8
2022-09-06T08:13:56.902Z,73.7
2022-09-06T08:15:13.130Z,73.2
2022-09-06T08:16:29.376Z,72.7
2022-09-06T08:17:45.617Z,72.7
2022-09-06T08:19:00.870Z,72.3
2022-09-06T08:20:17.097Z,72.8
2022-09-06T08:21:33.348Z,72.5
2022-09-06T08:22:49.590Z,72
2022-09-06T08:24:05.812Z,71.7
2022-09-06T08:25:22.051Z,71.3
2022-09-06T08:26:38.308Z,71
2022-09-06T08:27:54.536Z,71.2
2022-09-06T08:29:10.779Z,70.1
2022-09-06T08:30:27.006Z,69.4
2022-09-06T08:31:43.253Z,67.7
2022-09-06T08:32:59.483Z,67.1
2022-09-06T08:34:15.725Z,66.9
2022-09-06T08:35:30.980Z,68.1
2022-09-06T08:36:47.221Z,66.5
2022-09-06T08:38:03.459Z,66.8
2022-09-06T08:39:19.691Z,64.5
2022-09-06T08:40:35.942Z,65.3
2022-09-06T08:41:52.000Z,65.1
2022-09-06T08:43:07.437Z,66.5
2022-09-06T08:44:23.678Z,66.3
2022-09-06T08:45:39.915Z,63.2
2022-09-06T08:46:56.157Z,62.4
2022-09-06T08:48:12.386Z,63.8
2022-09-06T08:49:28.635Z,63.5
2022-09-06T08:50:44.875Z,63.9
2022-09-06T08:52:01.109Z,62.8
2022-09-06T08:53:17.334Z,62.9
2022-09-06T08:54:33.578Z,62.9
2022-09-06T08:55:49.828Z,63.4
2022-09-06T08:57:06.062Z,63.8
2022-09-06T08:58:22.287Z,64.4
2022-09-06T08:59:37.553Z,64.9
2022-09-06T09:00:53.779Z,65.3
2022-09-06T09:02:10.029Z,65.3
2022-09-06T09:03:26.273Z,65
2022-09-06T09:04:42.506Z,64.6
2022-09-06T09:05:58.736Z,64.4
2022-09-06T09:07:14.979Z,64.5
2022-09-06T09:08:31.223Z,63.7
2022-09-06T09:09:47.466Z,63.4
2022-09-06T09:11:03.686Z,63.5
2022-09-06T09:12:19.926Z,63
2022-09-06T09:13:36.172Z,63.4
2022-09-06T09:14:52.407Z,61.2
2022-09-06T09:16:07.656Z,58.3
2022-09-06T09:17:23.908Z,57.6
2022-09-06T09:18:40.140Z,56
2022-09-06T09:19:56.387Z,53.7
2022-09-06T09:21:12.609Z,52.5
2022-09-06T09:22:28.847Z,52.1
2022-09-06T09:23:45.101Z,50.2
2022-09-06T09:25:01.342Z,49.2
2022-09-06T09:26:17.563Z,50
2022-09-06T09:27:33.802Z,51.4
2022-09-06T09:28:50.043Z,50.1
2022-09-06T09:30:06.291Z,49.9
2022-09-06T09:31:22.529Z,49.9
2022-09-06T09:32:37.777Z,49.4
2022-09-06T09:33:54.028Z,47.4
2022-09-06T09:35:10.263Z,47.5
2022-09-06T09:36:26.504Z,46.9
2022-09-06T09:37:42.735Z,46.2
2022-09-06T09:38:58.970Z,46.5
2022-09-06T09:40:15.221Z,45.6
2022-09-06T09:41:31.458Z,45.1
2022-09-06T09:42:47.693Z,44.9
2022-09-06T09:44:03.932Z,44.8
2022-09-06T09:45:20.177Z,45.2
2022-09-06T09:46:36.416Z,45
2022-09-06T09:47:52.638Z,44.6
2022-09-06T09:49:07.896Z,44.5
2022-09-06T09:50:24.151Z,44.2
2022-09-06T09:51:40.389Z,43.8
2022-09-06T09:52:56.615Z,44.1
2022-09-06T09:54:12.864Z,43.3
2022-09-06T09:55:29.086Z,43.8
2022-09-06T09:56:45.329Z,43.2
2022-09-06T09:58:01.585Z,42.6
2022-09-06T09:59:17.805Z,42.7
2022-09-06T10:00:34.058Z,42.9
2022-09-06T10:01:50.291Z,42.7
2022-09-06T10:03:06.526Z,42.1
2022-09-06T10:04:22.769Z,41.8
2022-09-06T10:05:38.034Z,41.9
2022-09-06T10:06:54.263Z,41.9
2022-09-06T10:08:10.510Z,41.8
2022-09-06T10:09:26.753Z,42.3
2022-09-06T10:10:42.975Z,43.3
2022-09-06T10:11:59.227Z,43.2
2022-09-06T10:13:15.453Z,43.2
2022-09-06T10:14:31.710Z,43.5
2022-09-06T10:15:47.943Z,42.7
2022-09-06T10:17:04.170Z,42.8
2022-09-06T10:18:20.423Z,43.5
2022-09-06T10:19:36.662Z,44.7
2022-09-06T10:20:52.895Z,42.5
2022-09-06T10:22:08.156Z,42.2
2022-09-06T10:23:24.400Z,41.8
2022-09-06T10:24:40.634Z,41.2
2022-09-06T10:25:56.864Z,41.7
2022-09-06T10:27:13.118Z,41.2
2022-09-06T10:28:29.350Z,40.8
2022-09-06T10:29:45.584Z,41
2022-09-06T10:31:01.824Z,41
2022-09-06T10:32:18.058Z,40.8
2022-09-06T10:33:34.293Z,40.5
2022-09-06T10:34:50.545Z,40.7
2022-09-06T10:36:06.772Z,40.6
2022-09-06T10:37:23.024Z,40.4
2022-09-06T10:38:38.276Z,39.5
2022-09-06T10:39:54.529Z,39.7
2022-09-06T10:41:10.758Z,39.8
2022-09-06T10:42:26.990Z,39.3
2022-09-06T10:43:43.229Z,38.5
2022-09-06T10:44:59.480Z,38.3
2022-09-06T10:46:15.720Z,38.3
2022-09-06T10:47:31.948Z,38.5
2022-09-06T10:48:48.200Z,38.2
2022-09-06T10:50:04.438Z,38.6
2022-09-06T10:51:20.669Z,38.4
2022-09-06T10:52:36.914Z,38.8
2022-09-06T10:53:53.158Z,39.5
2022-09-06T10:55:08.415Z,41.3
2022-09-06T10:56:24.646Z,42.6
2022-09-06T10:57:40.884Z,44
2022-09-06T10:58:57.115Z,45.3
2022-09-06T11:00:13.368Z,46.5
2022-09-06T11:01:29.601Z,47.6
2022-09-06T11:02:45.840Z,47.9
2022-09-06T11:04:02.072Z,48.4
2022-09-06T11:05:18.327Z,49.6
2022-09-06T11:06:34.563Z,50.2
2022-09-06T11:07:50.801Z,50.8
2022-09-06T11:09:07.042Z,52
2022-09-06T11:10:23.272Z,52
2022-09-06T11:11:38.531Z,52.6
2022-09-06T11:12:54.774Z,54
2022-09-06T11:14:11.003Z,54.8
2022-09-06T11:15:27.238Z,54.5
2022-09-06T11:16:43.476Z,54.7
2022-09-06T11:17:59.722Z,54.9
2022-09-06T11:19:15.970Z,56
2022-09-06T11:20:32.214Z,55.5
2022-09-06T11:21:48.437Z,57
2022-09-06T11:23:04.687Z,55.8
2022-09-06T11:24:20.913Z,56
2022-09-06T11:25:37.160Z,56.2
2022-09-06T11:26:53.404Z,56.7
2022-09-06T11:28:08.648Z,57.5
2022-09-06T11:29:24.886Z,57.8
2022-09-06T11:30:41.138Z,58.1
2022-09-06T11:31:57.357Z,57.5
2022-09-06T11:33:13.610Z,57.5
2022-09-06T11:34:29.839Z,57.9
2022-09-06T11:35:46.084Z,58.2
2022-09-06T11:37:02.331Z,58.5
2022-09-06T11:38:18.567Z,59.2
2022-09-06T11:39:34.801Z,59
2022-09-06T11:40:51.038Z,58.8
2022-09-06T11:42:07.283Z,59.4
2022-09-06T11:43:23.510Z,58.9
2022-09-06T11:44:38.769Z,59.8
2022-09-06T11:45:55.007Z,59.5
2022-09-06T11:48:27.495Z,60.1
2022-09-06T11:49:43.724Z,60.4
2022-09-06T11:50:59.974Z,60
2022-09-06T11:52:16.213Z,60.2
2022-09-06T11:53:32.450Z,59.7
2022-09-06T11:56:04.920Z,59.9
2022-09-06T11:57:21.154Z,60.4
2022-09-06T11:58:37.404Z,60.8
2022-09-06T11:59:53.632Z,61.3
2022-09-06T12:01:08.902Z,61.9
2022-09-06T12:02:25.121Z,62.3
2022-09-06T12:03:41.366Z,61.8
2022-09-06T12:04:57.615Z,61.4
2022-09-06T12:06:13.842Z,61.7
2022-09-06T12:07:30.097Z,61.5
2022-09-06T12:08:46.334Z,62.4
2022-09-06T12:10:02.555Z,61.3
2022-09-06T12:11:18.803Z,61.6
2022-09-06T12:12:35.050Z,61.8
2022-09-06T12:13:51.282Z,61.6
2022-09-06T12:15:07.515Z,61.4
2022-09-06T12:16:23.748Z,61.9
2022-09-06T12:17:39.018Z,61.9
2022-09-06T12:18:55.255Z,62.1
2022-09-06T12:20:11.494Z,63.4
2022-09-06T12:21:27.734Z,64.3
2022-09-06T12:22:43.958Z,64.1
2022-09-06T12:24:00.209Z,64.7
2022-09-06T12:25:16.449Z,65.7
2022-09-06T12:26:32.680Z,65.9
2022-09-06T12:27:48.926Z,64.6
2022-09-06T12:29:05.156Z,66.3
2022-09-06T12:30:21.399Z,65.5
2022-09-06T12:31:37.639Z,67.4
2022-09-06T12:32:53.876Z,64.9
2022-09-06T12:34:09.136Z,66.2
2022-09-06T12:35:25.365Z,68
2022-09-06T12:36:41.600Z,71
2022-09-06T12:37:57.857Z,72.7
2022-09-06T12:39:14.093Z,72.8
2022-09-06T12:40:30.324Z,74.9
2022-09-06T12:41:46.563Z,72.9
2022-09-06T12:43:02.795Z,73.1
2022-09-06T12:44:19.042Z,74.5
2022-09-06T12:45:35.287Z,72.5
2022-09-06T12:46:51.511Z,73.2
2022-09-06T12:48:07.757Z,72.8
2022-09-06T12:49:23.989Z,74.5
2022-09-06T12:50:39.242Z,75.8
2022-09-06T12:51:55.484Z,77.7
2022-09-06T12:53:11.735Z,77.2
2022-09-06T12:54:27.973Z,77.5
2022-09-06T12:55:44.203Z,76.8
2022-09-06T12:57:00.435Z,77
2022-09-06T12:58:15.702Z,78
2022-09-06T12:59:31.951Z,79.9
2022-09-06T13:00:48.175Z,77.7
2022-09-06T13:02:04.408Z,76.6
2022-09-06T13:03:20.651Z,76.4
2022-09-06T13:04:36.896Z,76.3
2022-09-06T13:05:53.130Z,76.8
2022-09-06T13:07:09.361Z,76.4
2022-09-06T13:08:25.603Z,76.7
2022-09-06T13:09:41.849Z,76.2
2022-09-06T13:10:58.080Z,76.6
2022-09-06T13:12:14.326Z,75.2
2022-09-06T13:13:30.573Z,75.2
2022-09-06T13:14:45.816Z,70.7
2022-09-06T13:16:02.056Z,71.3
2022-09-06T13:17:18.294Z,66.6
2022-09-06T13:18:34.543Z,67.2
2022-09-06T13:19:50.771Z,66.9
2022-09-06T13:21:07.008Z,66.7
2022-09-06T13:22:23.244Z,67.9
2022-09-06T13:23:39.479Z,66.6
2022-09-06T13:24:55.732Z,68.3
2022-09-06T13:26:11.973Z,68
2022-09-06T13:27:28.193Z,67.8
2022-09-06T13:28:44.441Z,68.3
2022-09-06T13:30:00.678Z,68.2
2022-09-06T13:31:15.931Z,68.5
2022-09-06T13:32:32.183Z,68
2022-09-06T13:33:48.403Z,68.2
2022-09-06T13:35:04.648Z,68
2022-09-06T13:36:20.879Z,68
2022-09-06T13:37:37.120Z,69
2022-09-06T13:38:53.365Z,67.9
2022-09-06T13:40:09.601Z,68.2
2022-09-06T13:41:25.842Z,66.8
2022-09-06T13:42:42.074Z,66.9
2022-09-06T13:43:58.309Z,67
2022-09-06T13:45:14.549Z,66.2
2022-09-06T13:46:30.795Z,65.6
2022-09-06T13:47:46.047Z,66.4
2022-09-06T13:49:02.298Z,66.7
2022-09-06T13:50:18.523Z,66.4
2022-09-06T13:51:34.767Z,65.4
2022-09-06T13:52:51.007Z,66.1
2022-09-06T13:54:07.240Z,65.6
2022-09-06T13:55:23.480Z,62.8
2022-09-06T13:56:39.714Z,63.5
2022-09-06T13:57:55.964Z,64.1
2022-09-06T13:59:12.209Z,64.2
2022-09-06T14:00:28.444Z,64.6
2022-09-06T14:01:44.678Z,63.9
2022-09-06T14:03:00.915Z,64.3
2022-09-06T14:04:16.177Z,63.2
2022-09-06T14:05:32.398Z,63.3
2022-09-06T14:06:48.645Z,64.3
2022-09-06T14:08:04.891Z,61.5
2022-09-06T14:09:21.125Z,61.8
2022-09-06T14:10:37.356Z,60.9
2022-09-06T14:11:53.598Z,60.4
2022-09-06T14:13:09.829Z,60.5
2022-09-06T14:14:26.085Z,60.7
2022-09-06T14:15:42.319Z,60.8
2022-09-06T14:16:58.556Z,60.3
2022-09-06T14:18:14.792Z,60.3
2022-09-06T14:19:31.019Z,60.3
2022-09-06T14:20:46.284Z,60.5
2022-09-06T14:22:02.528Z,61.3
2022-09-06T14:23:18.755Z,62.5
2022-09-06T14:24:34.994Z,62.3
2022-09-06T14:25:51.230Z,61.9
2022-09-06T14:27:07.468Z,61.7
2022-09-06T14:28:23.710Z,61
2022-09-06T14:29:39.000Z,61.3
2022-09-06T14:30:56.193Z,62.3
2022-09-06T14:32:12.424Z,62.6
2022-09-06T14:33:28.670Z,62.4
2022-09-06T14:34:44.909Z,63.2
2022-09-06T14:36:01.152Z,64.5
2022-09-06T14:37:16.393Z,65.9
2022-09-06T14:38:32.630Z,66.5
2022-09-06T14:39:48.877Z,67.1
2022-09-06T14:41:05.110Z,67.6
2022-09-06T14:42:21.348Z,68.1
2022-09-06T14:43:37.584Z,68.6
2022-09-06T14:44:53.000Z,69.4
2022-09-06T14:46:10.064Z,70
2022-09-06T14:47:26.299Z,69.5
2022-09-06T14:48:42.538Z,69.8
2022-09-06T14:49:58.796Z,70.2
2022-09-06T14:51:15.029Z,69.4
2022-09-06T14:52:31.263Z,68.7
2022-09-06T14:53:46.525Z,69.1
2022-09-06T14:55:02.762Z,69.2
2022-09-06T14:56:19.001Z,69.4
2022-09-06T14:57:35.236Z,69.5
2022-09-06T14:58:51.473Z,69.4
2022-09-06T15:00:07.706Z,70.1
2022-09-06T15:01:23.938Z,71.4
2022-09-06T15:02:40.191Z,71.8
2022-09-06T15:03:56.429Z,72.6
2022-09-06T15:05:12.663Z,73.1
2022-09-06T15:06:28.894Z,73.8
2022-09-06T15:07:45.137Z,74.2
2022-09-06T15:09:01.388Z,74.5
2022-09-06T15:10:16.632Z,74.8
2022-09-06T15:11:32.881Z,74.6
2022-09-06T15:12:49.100Z,74.1
2022-09-06T15:14:05.347Z,74.8
2022-09-06T15:15:21.589Z,75.3
2022-09-06T15:16:37.820Z,75.7
2022-09-06T15:17:54.066Z,76.2
2022-09-06T15:19:10.291Z,76.1
2022-09-06T15:20:26.526Z,76
2022-09-06T15:21:42.772Z,75.6
2022-09-06T15:22:59.022Z,75.5
2022-09-06T15:24:15.260Z,75.8
2022-09-06T15:25:31.491Z,75.7
2022-09-06T15:26:46.737Z,76.4
2022-09-06T15:28:02.972Z,76.7
2022-09-06T15:29:19.228Z,76.9
2022-09-06T15:30:35.458Z,77.4
2022-09-06T15:31:51.697Z,77.5
2022-09-06T15:33:07.946Z,77.5
2022-09-06T15:40:45.343Z,77.4
2022-09-06T15:42:00.623Z,76.8
2022-09-06T15:43:15.861Z,76.8
2022-09-06T15:44:31.136Z,76.7
2022-09-06T15:45:46.389Z,76.7
2022-09-06T15:47:01.647Z,76.8
2022-09-06T15:48:16.898Z,76.7
2022-09-06T15:49:32.159Z,76.5
2022-09-06T15:50:47.415Z,76.8
2022-09-06T15:52:03.647Z,77.2
2022-09-06T15:53:19.889Z,76.7
2022-09-06T15:54:36.137Z,76.7
2022-09-06T15:55:52.358Z,77.2
2022-09-06T15:57:08.607Z,77.8
2022-09-06T15:58:24.839Z,78
2022-09-06T15:59:41.070Z,78.3
2022-09-06T16:00:57.315Z,78.5
2022-09-06T16:02:13.562Z,78.2
2022-09-06T16:03:28.822Z,78.4
2022-09-06T16:04:44.069Z,78.8
2022-09-06T16:06:00.304Z,78.6
2022-09-06T16:07:16.556Z,78.3
2022-09-06T16:08:32.789Z,78.4
2022-09-06T16:09:49.019Z,78.4
2022-09-06T16:11:05.267Z,78.2
2022-09-06T16:13:37.735Z,78.3
2022-09-06T16:14:53.972Z,78.2
2022-09-06T16:16:10.207Z,78
2022-09-06T16:17:26.459Z,77.8
2022-09-06T16:18:42.688Z,77.5
2022-09-06T16:19:58.932Z,77.5
2022-09-06T16:21:14.194Z,77.3
2022-09-06T16:22:30.435Z,76.8
2022-09-06T16:23:46.655Z,77
2022-09-06T16:25:02.910Z,77.2
2022-09-06T16:26:19.144Z,76.8
2022-09-06T16:27:35.380Z,76.8
2022-09-06T16:28:51.624Z,76.8
2022-09-06T16:30:07.853Z,76.5
2022-09-06T16:31:23.121Z,76.5
2022-09-06T16:32:38.377Z,76.3
2022-09-06T16:33:54.619Z,76.1
2022-09-06T16:35:10.852Z,76.3
2022-09-06T16:36:27.091Z,76.3
2022-09-06T16:37:43.320Z,76.3
2022-09-06T16:38:59.554Z,76.5
2022-09-06T16:40:15.800Z,76.8
2022-09-06T16:41:32.050Z,75.8
2022-09-06T16:42:48.271Z,76.2
2022-09-06T16:44:04.517Z,76
2022-09-06T16:45:20.758Z,76.2
2022-09-06T16:47:53.242Z,76.3
2022-09-06T16:49:08.493Z,76.5
2022-09-06T16:50:24.723Z,76.8
2022-09-06T16:51:40.955Z,76.8
2022-09-06T16:52:57.206Z,76.7
2022-09-06T16:54:13.438Z,76.7
2022-09-06T16:55:29.669Z,76.8
2022-09-06T16:56:45.927Z,76.7
2022-09-06T16:58:02.166Z,76.5
2022-09-06T16:59:17.406Z,76.5
2022-09-06T17:00:32.673Z,76.7
2022-09-06T17:01:47.931Z,77
2022-09-06T17:03:03.188Z,77
2022-09-06T17:04:19.430Z,76.8
2022-09-06T17:05:35.654Z,76.8
2022-09-06T17:06:51.899Z,76.7
2022-09-06T17:08:08.141Z,76.7
2022-09-06T17:09:24.385Z,75.9
2022-09-06T17:10:40.622Z,75.8
2022-09-06T17:11:56.856Z,75.8
2022-09-06T17:13:12.120Z,75.6